createdAt,value
2017-10-20T00:00:02.999Z,1005.3
2017-10-20T00:01:05.472Z,1005.3
2017-10-20T00:02:07.867Z,1005.3
2017-10-20T00:03:10.240Z,1005.4
2017-10-20T00:04:12.609Z,1005.3
2017-10-20T00:05:14.992Z,1005.3
2017-10-20T00:06:17.592Z,1005.3
2017-10-20T00:07:19.986Z,1005.3
2017-10-20T00:08:22.368Z,1005.3
2017-10-20T00:09:24.758Z,1005.2
2017-10-20T00:10:27.117Z,1005.1
2017-10-20T00:11:29.613Z,1005.2
2017-10-20T00:12:32.166Z,1005.2
2017-10-20T00:13:34.544Z,1005.2
2017-10-20T00:14:36.907Z,1005.2
2017-10-20T00:15:39.292Z,1005.2
2017-10-20T00:16:41.667Z,1005.2
2017-10-20T00:17:44.056Z,1005.2
2017-10-20T00:18:46.432Z,1005.2
2017-10-20T00:19:48.822Z,1005.2
2017-10-20T00:20:51.424Z,1005.2
2017-10-20T00:21:53.861Z,1005.2
2017-10-20T00:22:56.232Z,1005.2
2017-10-20T00:23:58.603Z,1005.2
2017-10-20T00:25:00.998Z,1005.1
2017-10-20T00:26:03.886Z,1005.2
2017-10-20T00:27:06.281Z,1005.1
2017-10-20T00:28:08.690Z,1005.1
2017-10-20T00:29:11.077Z,1005.2
2017-10-20T00:30:13.480Z,1005.2
2017-10-20T00:31:16.084Z,1005.2
2017-10-20T00:32:18.452Z,1005.2
2017-10-20T00:33:20.866Z,1005.2
2017-10-20T00:34:23.290Z,1005.2
2017-10-20T00:35:25.641Z,1005.2
2017-10-20T00:36:28.218Z,1005.2
2017-10-20T00:37:30.595Z,1005.2
2017-10-20T00:38:33.015Z,1005.2
2017-10-20T00:39:36.094Z,1005.1
2017-10-20T00:40:38.506Z,1005.1
2017-10-20T00:41:40.901Z,1005.1
2017-10-20T00:42:43.314Z,1005.1
2017-10-20T00:43:45.680Z,1005
2017-10-20T00:44:48.057Z,1005
2017-10-20T00:45:50.415Z,1005
2017-10-20T00:46:52.826Z,1005
2017-10-20T00:47:55.198Z,1005
2017-10-20T00:48:57.589Z,1005
2017-10-20T00:49:59.965Z,1005.1
2017-10-20T00:51:02.541Z,1005.2
2017-10-20T00:52:04.950Z,1005.1
2017-10-20T00:53:07.388Z,1005.1
2017-10-20T00:54:09.747Z,1005
2017-10-20T00:55:12.336Z,1005
2017-10-20T00:56:14.698Z,1004.9
2017-10-20T00:57:17.100Z,1004.8
2017-10-20T00:58:19.506Z,1004.8
2017-10-20T00:59:21.880Z,1004.8
2017-10-20T01:00:24.303Z,1004.9
2017-10-20T01:01:26.682Z,1005
2017-10-20T01:02:29.075Z,1005
2017-10-20T01:03:31.471Z,1005
2017-10-20T01:04:33.862Z,1004.9
2017-10-20T01:05:36.398Z,1005
2017-10-20T01:06:38.780Z,1005
2017-10-20T01:07:41.514Z,1005
2017-10-20T01:08:43.885Z,1005
2017-10-20T01:09:46.258Z,1005
2017-10-20T01:10:48.672Z,1005
2017-10-20T01:11:51.488Z,1004.9
2017-10-20T01:12:53.851Z,1004.9
2017-10-20T01:13:56.229Z,1005
2017-10-20T01:14:59.056Z,1005
2017-10-20T01:16:01.463Z,1005
2017-10-20T01:17:03.841Z,1004.9
2017-10-20T01:18:06.216Z,1004.9
2017-10-20T01:19:08.810Z,1005
2017-10-20T01:20:11.180Z,1005
2017-10-20T01:21:13.597Z,1005
2017-10-20T01:22:15.977Z,1005
2017-10-20T01:23:18.343Z,1005.1
2017-10-20T01:24:20.986Z,1005.1
2017-10-20T01:25:23.391Z,1005.1
2017-10-20T01:26:25.772Z,1005.1
2017-10-20T01:27:28.163Z,1005.1
2017-10-20T01:28:30.535Z,1005.1
2017-10-20T01:29:33.030Z,1005
2017-10-20T01:30:35.464Z,1005.1
2017-10-20T01:31:37.826Z,1005
2017-10-20T01:32:40.217Z,1005.1
2017-10-20T01:33:42.628Z,1005.1
2017-10-20T01:34:45.030Z,1005.1
2017-10-20T01:35:47.775Z,1005.2
2017-10-20T01:36:50.144Z,1005.1
2017-10-20T01:37:52.574Z,1005.2
2017-10-20T01:38:55.154Z,1005.1
2017-10-20T01:39:57.550Z,1005.1
2017-10-20T01:40:59.919Z,1005.2
2017-10-20T01:42:02.292Z,1005.2
2017-10-20T01:43:04.714Z,1005.1
2017-10-20T01:44:07.276Z,1005.2
2017-10-20T01:45:09.664Z,1005.2
2017-10-20T01:46:12.041Z,1005.1
2017-10-20T01:47:14.416Z,1005.1
2017-10-20T01:48:16.816Z,1005.2
2017-10-20T01:49:19.191Z,1005.1
2017-10-20T01:50:21.574Z,1005.2
2017-10-20T01:51:23.945Z,1005.2
2017-10-20T01:52:26.365Z,1005.2
2017-10-20T01:53:28.845Z,1005.2
2017-10-20T01:54:31.222Z,1005.2
2017-10-20T01:55:33.614Z,1005.2
2017-10-20T01:56:35.999Z,1005.2
2017-10-20T01:57:38.391Z,1005.1
2017-10-20T01:58:40.956Z,1005.2
2017-10-20T01:59:43.320Z,1005.1
2017-10-20T02:00:45.741Z,1005.2
2017-10-20T02:01:48.167Z,1005.1
2017-10-20T02:02:50.536Z,1005.1
2017-10-20T02:03:53.265Z,1005.2
2017-10-20T02:04:55.639Z,1005.2
2017-10-20T02:05:58.024Z,1005.1
2017-10-20T02:07:00.409Z,1005.1
2017-10-20T02:08:02.933Z,1005.1
2017-10-20T02:09:05.334Z,1005.1
2017-10-20T02:10:07.719Z,1005
2017-10-20T02:11:10.124Z,1005
2017-10-20T02:12:12.689Z,1005.1
2017-10-20T02:13:15.058Z,1005
2017-10-20T02:14:17.434Z,1005
2017-10-20T02:15:19.827Z,1005
2017-10-20T02:16:22.208Z,1005
2017-10-20T02:17:24.588Z,1005
2017-10-20T02:18:27.326Z,1005
2017-10-20T02:19:29.732Z,1005
2017-10-20T02:20:32.219Z,1005
2017-10-20T02:21:34.625Z,1005
2017-10-20T02:22:37.229Z,1005
2017-10-20T02:23:39.611Z,1004.9
2017-10-20T02:24:41.994Z,1004.9
2017-10-20T02:25:44.398Z,1004.9
2017-10-20T02:26:46.777Z,1004.9
2017-10-20T02:27:49.214Z,1005
2017-10-20T02:28:51.582Z,1004.9
2017-10-20T02:29:53.977Z,1005
2017-10-20T02:30:56.372Z,1004.9
2017-10-20T02:31:59.309Z,1004.9
2017-10-20T02:33:01.700Z,1004.9
2017-10-20T02:34:04.106Z,1004.9
2017-10-20T02:35:06.836Z,1004.9
2017-10-20T02:36:09.282Z,1005
2017-10-20T02:37:12.053Z,1005
2017-10-20T02:38:14.408Z,1005
2017-10-20T02:39:16.790Z,1004.9
2017-10-20T02:40:19.175Z,1004.9
2017-10-20T02:41:21.658Z,1005
2017-10-20T02:42:24.040Z,1004.9
2017-10-20T02:43:26.838Z,1004.9
2017-10-20T02:44:29.211Z,1004.9
2017-10-20T02:45:31.591Z,1004.9
2017-10-20T02:46:33.968Z,1004.9
2017-10-20T02:47:36.344Z,1004.9
2017-10-20T02:48:38.724Z,1004.8
2017-10-20T02:49:41.090Z,1004.9
2017-10-20T02:50:43.468Z,1004.9
2017-10-20T02:51:45.849Z,1004.9
2017-10-20T02:52:48.233Z,1004.9
2017-10-20T02:53:50.626Z,1004.8
2017-10-20T02:54:53.013Z,1004.8
2017-10-20T02:55:55.428Z,1004.8
2017-10-20T02:56:57.816Z,1004.9
2017-10-20T02:58:00.200Z,1004.8
2017-10-20T02:59:02.615Z,1004.8
2017-10-20T03:00:04.995Z,1004.7
2017-10-20T03:01:07.385Z,1004.7
2017-10-20T03:02:09.791Z,1004.7
2017-10-20T03:03:12.221Z,1004.6
2017-10-20T03:04:14.624Z,1004.7
2017-10-20T03:05:16.990Z,1004.7
2017-10-20T03:06:19.350Z,1004.7
2017-10-20T03:07:21.727Z,1004.7
2017-10-20T03:08:24.115Z,1004.7
2017-10-20T03:09:26.508Z,1004.8
2017-10-20T03:10:28.947Z,1004.8
2017-10-20T03:11:31.329Z,1004.8
2017-10-20T03:12:33.745Z,1004.8
2017-10-20T03:13:36.104Z,1004.7
2017-10-20T03:14:38.487Z,1004.7
2017-10-20T03:15:40.872Z,1004.7
2017-10-20T03:16:43.241Z,1004.7
2017-10-20T03:17:45.620Z,1004.7
2017-10-20T03:18:47.981Z,1004.8
2017-10-20T03:19:50.356Z,1004.7
2017-10-20T03:20:53.458Z,1004.7
2017-10-20T03:21:55.848Z,1004.7
2017-10-20T03:22:58.222Z,1004.7
2017-10-20T03:24:00.596Z,1004.7
2017-10-20T03:25:02.975Z,1004.7
2017-10-20T03:26:05.351Z,1004.7
2017-10-20T03:27:07.736Z,1004.7
2017-10-20T03:28:10.108Z,1004.7
2017-10-20T03:29:13.233Z,1004.7
2017-10-20T03:30:15.638Z,1004.7
2017-10-20T03:31:18.005Z,1004.7
2017-10-20T03:32:20.402Z,1004.7
2017-10-20T03:33:22.784Z,1004.6
2017-10-20T03:34:25.167Z,1004.6
2017-10-20T03:35:27.587Z,1004.6
2017-10-20T03:36:29.962Z,1004.7
2017-10-20T03:37:32.382Z,1004.7
2017-10-20T03:38:34.750Z,1004.7
2017-10-20T03:39:37.156Z,1004.6
2017-10-20T03:40:39.582Z,1004.6
2017-10-20T03:41:42.398Z,1004.6
2017-10-20T03:42:44.779Z,1004.6
2017-10-20T03:43:47.143Z,1004.6
2017-10-20T03:44:49.547Z,1004.6
2017-10-20T03:45:51.932Z,1004.6
2017-10-20T03:46:54.329Z,1004.5
2017-10-20T03:47:56.702Z,1004.5
2017-10-20T03:48:59.064Z,1004.6
2017-10-20T03:50:01.821Z,1004.6
2017-10-20T03:51:04.403Z,1004.6
2017-10-20T03:52:07.133Z,1004.6
2017-10-20T03:53:09.530Z,1004.7
2017-10-20T03:54:11.907Z,1004.7
2017-10-20T03:55:14.278Z,1004.7
2017-10-20T03:56:16.680Z,1004.7
2017-10-20T03:57:19.077Z,1004.7
2017-10-20T03:58:21.502Z,1004.7
2017-10-20T03:59:23.872Z,1004.8
2017-10-20T04:00:26.254Z,1004.8
2017-10-20T04:01:28.677Z,1004.8
2017-10-20T04:02:31.072Z,1004.8
2017-10-20T04:03:33.496Z,1004.8
2017-10-20T04:04:35.875Z,1004.8
2017-10-20T04:05:38.243Z,1004.9
2017-10-20T04:06:40.668Z,1004.9
2017-10-20T04:07:43.071Z,1004.9
2017-10-20T04:08:45.491Z,1004.9
2017-10-20T04:09:47.878Z,1004.9
2017-10-20T04:10:50.244Z,1004.8
2017-10-20T04:11:52.647Z,1004.8
2017-10-20T04:12:55.394Z,1004.8
2017-10-20T04:13:57.779Z,1004.8
2017-10-20T04:15:00.156Z,1004.8
2017-10-20T04:16:02.585Z,1004.8
2017-10-20T04:17:04.953Z,1004.8
2017-10-20T04:18:07.375Z,1004.8
2017-10-20T04:19:09.795Z,1004.7
2017-10-20T04:20:12.165Z,1004.7
2017-10-20T04:21:14.594Z,1004.7
2017-10-20T04:22:17.313Z,1004.7
2017-10-20T04:23:19.794Z,1004.8
2017-10-20T04:24:22.191Z,1004.8
2017-10-20T04:25:24.592Z,1004.8
2017-10-20T04:26:26.975Z,1004.8
2017-10-20T04:27:29.349Z,1004.7
2017-10-20T04:28:31.758Z,1004.7
2017-10-20T04:29:34.172Z,1004.7
2017-10-20T04:30:36.983Z,1004.7
2017-10-20T04:31:39.773Z,1004.7
2017-10-20T04:32:42.152Z,1004.7
2017-10-20T04:33:44.587Z,1004.7
2017-10-20T04:34:47.317Z,1004.7
2017-10-20T04:35:49.757Z,1004.7
2017-10-20T04:36:52.166Z,1004.7
2017-10-20T04:37:54.591Z,1004.7
2017-10-20T04:38:56.966Z,1004.7
2017-10-20T04:39:59.334Z,1004.7
2017-10-20T04:41:02.104Z,1004.7
2017-10-20T04:42:04.552Z,1004.7
2017-10-20T04:43:06.976Z,1004.7
2017-10-20T04:44:09.363Z,1004.7
2017-10-20T04:45:11.765Z,1004.7
2017-10-20T04:46:14.148Z,1004.7
2017-10-20T04:47:16.562Z,1004.7
2017-10-20T04:48:18.978Z,1004.7
2017-10-20T04:49:21.353Z,1004.7
2017-10-20T04:50:23.725Z,1004.7
2017-10-20T04:51:26.100Z,1004.7
2017-10-20T04:52:28.468Z,1004.7
2017-10-20T04:53:30.844Z,1004.7
2017-10-20T04:54:33.208Z,1004.7
2017-10-20T04:55:35.781Z,1004.7
2017-10-20T04:56:38.159Z,1004.7
2017-10-20T04:57:40.533Z,1004.7
2017-10-20T04:58:42.908Z,1004.6
2017-10-20T04:59:45.276Z,1004.7
2017-10-20T05:00:47.655Z,1004.6
2017-10-20T05:01:50.035Z,1004.6
2017-10-20T05:02:52.607Z,1004.7
2017-10-20T05:03:54.979Z,1004.7
2017-10-20T05:04:57.367Z,1004.7
2017-10-20T05:05:59.741Z,1004.7
2017-10-20T05:07:02.223Z,1004.7
2017-10-20T05:08:04.833Z,1004.7
2017-10-20T05:09:07.210Z,1004.7
2017-10-20T05:10:09.573Z,1004.7
2017-10-20T05:11:11.953Z,1004.7
2017-10-20T05:12:14.610Z,1004.7
2017-10-20T05:13:16.994Z,1004.7
2017-10-20T05:14:19.740Z,1004.7
2017-10-20T05:15:22.117Z,1004.7
2017-10-20T05:16:24.492Z,1004.7
2017-10-20T05:17:27.129Z,1004.7
2017-10-20T05:18:29.500Z,1004.7
2017-10-20T05:19:31.867Z,1004.7
2017-10-20T05:20:34.271Z,1004.6
2017-10-20T05:21:36.909Z,1004.6
2017-10-20T05:22:39.278Z,1004.6
2017-10-20T05:23:41.650Z,1004.7
2017-10-20T05:24:44.030Z,1004.7
2017-10-20T05:25:46.397Z,1004.7
2017-10-20T05:26:48.775Z,1004.7
2017-10-20T05:27:51.456Z,1004.7
2017-10-20T05:28:53.805Z,1004.7
2017-10-20T05:29:57.286Z,1004.7
2017-10-20T05:30:59.657Z,1004.7
2017-10-20T05:32:02.032Z,1004.6
2017-10-20T05:33:04.797Z,1004.6
2017-10-20T05:34:07.524Z,1004.6
2017-10-20T05:35:10.195Z,1004.5
2017-10-20T05:36:12.586Z,1004.6
2017-10-20T05:37:15.292Z,1004.5
2017-10-20T05:38:17.682Z,1004.6
2017-10-20T05:39:20.332Z,1004.5
2017-10-20T05:40:22.711Z,1004.6
2017-10-20T05:41:25.434Z,1004.6
2017-10-20T05:42:27.793Z,1004.6
2017-10-20T05:43:30.522Z,1004.5
2017-10-20T05:44:32.902Z,1004.5
2017-10-20T05:45:35.265Z,1004.5
2017-10-20T05:46:37.894Z,1004.6
2017-10-20T05:47:40.271Z,1004.6
2017-10-20T05:48:43.001Z,1004.5
2017-10-20T05:49:45.376Z,1004.5
2017-10-20T05:50:47.755Z,1004.5
2017-10-20T05:51:50.122Z,1004.5
2017-10-20T05:52:52.511Z,1004.5
2017-10-20T05:53:55.133Z,1004.5
2017-10-20T05:54:57.507Z,1004.6
2017-10-20T05:55:59.912Z,1004.6
2017-10-20T05:57:02.447Z,1004.6
2017-10-20T05:58:04.819Z,1004.6
2017-10-20T05:59:07.202Z,1004.6
2017-10-20T06:00:09.576Z,1004.6
2017-10-20T06:01:12.006Z,1004.6
2017-10-20T06:02:14.387Z,1004.6
2017-10-20T06:03:16.756Z,1004.6
2017-10-20T06:04:19.431Z,1004.6
2017-10-20T06:05:21.807Z,1004.6
2017-10-20T06:06:24.176Z,1004.5
2017-10-20T06:07:26.555Z,1004.5
2017-10-20T06:08:28.928Z,1004.6
2017-10-20T06:09:32.012Z,1004.6
2017-10-20T06:10:34.749Z,1004.6
2017-10-20T06:11:37.107Z,1004.6
2017-10-20T06:12:39.483Z,1004.6
2017-10-20T06:13:42.181Z,1004.6
2017-10-20T06:14:44.540Z,1004.5
2017-10-20T06:15:46.909Z,1004.5
2017-10-20T06:16:49.286Z,1004.5
2017-10-20T06:17:51.707Z,1004.5
2017-10-20T06:18:54.092Z,1004.5
2017-10-20T06:19:56.474Z,1004.5
2017-10-20T06:20:58.843Z,1004.5
2017-10-20T06:22:01.239Z,1004.5
2017-10-20T06:23:03.607Z,1004.5
2017-10-20T06:24:05.997Z,1004.6
2017-10-20T06:25:08.373Z,1004.5
2017-10-20T06:26:10.742Z,1004.5
2017-10-20T06:27:13.125Z,1004.5
2017-10-20T06:28:15.507Z,1004.5
2017-10-20T06:29:17.885Z,1004.5
2017-10-20T06:30:20.669Z,1004.4
2017-10-20T06:31:23.036Z,1004.4
2017-10-20T06:32:25.404Z,1004.4
2017-10-20T06:33:27.805Z,1004.4
2017-10-20T06:34:30.478Z,1004.4
2017-10-20T06:35:32.843Z,1004.4
2017-10-20T06:36:35.214Z,1004.4
2017-10-20T06:37:37.603Z,1004.4
2017-10-20T06:38:40.117Z,1004.4
2017-10-20T06:39:42.499Z,1004.4
2017-10-20T06:40:44.870Z,1004.4
2017-10-20T06:41:47.244Z,1004.4
2017-10-20T06:42:50.027Z,1004.4
2017-10-20T06:43:52.413Z,1004.4
2017-10-20T06:44:54.777Z,1004.5
2017-10-20T06:45:57.408Z,1004.4
2017-10-20T06:46:59.783Z,1004.5
2017-10-20T06:48:02.181Z,1004.4
2017-10-20T06:49:04.983Z,1004.4
2017-10-20T06:50:07.514Z,1004.4
2017-10-20T06:51:09.894Z,1004.4
2017-10-20T06:52:12.287Z,1004.4
2017-10-20T06:53:14.667Z,1004.4
2017-10-20T06:54:17.257Z,1004.4
2017-10-20T06:55:19.654Z,1004.4
2017-10-20T06:56:22.042Z,1004.4
2017-10-20T06:57:24.445Z,1004.4
2017-10-20T06:58:27.371Z,1004.4
2017-10-20T06:59:29.875Z,1004.4
2017-10-20T07:00:33.680Z,1004.4
2017-10-20T07:01:36.456Z,1004.4
2017-10-20T07:02:38.838Z,1004.5
2017-10-20T07:03:42.863Z,1004.5
2017-10-20T07:04:51.430Z,1004.5
2017-10-20T07:05:59.664Z,1004.5
2017-10-20T07:07:09.668Z,1004.4
2017-10-20T07:08:19.933Z,1004.4
2017-10-20T07:09:30.392Z,1004.3
2017-10-20T07:10:40.492Z,1004.4
2017-10-20T07:11:47.247Z,1004.4
2017-10-20T07:12:59.321Z,1004.3
2017-10-20T07:14:10.759Z,1004.3
2017-10-20T07:15:23.462Z,1004.3
2017-10-20T07:16:34.332Z,1004.3
2017-10-20T07:17:49.207Z,1004.3
2017-10-20T07:19:14.013Z,1004.2
2017-10-20T07:20:26.054Z,1004.3
2017-10-20T07:21:36.547Z,1004.2
2017-10-20T07:22:47.411Z,1004.3
2017-10-20T07:23:58.000Z,1004.3
2017-10-20T07:25:08.943Z,1004.3
2017-10-20T07:26:19.572Z,1004.3
2017-10-20T07:27:28.438Z,1004.4
2017-10-20T07:28:30.833Z,1004.3
2017-10-20T07:29:33.281Z,1004.4
2017-10-20T07:30:35.686Z,1004.4
2017-10-20T07:31:38.074Z,1004.4
2017-10-20T07:32:40.592Z,1004.5
2017-10-20T07:33:43.475Z,1004.4
2017-10-20T07:34:45.935Z,1004.4
2017-10-20T07:35:48.697Z,1004.4
2017-10-20T07:36:51.424Z,1004.4
2017-10-20T07:37:53.809Z,1004.5
2017-10-20T07:38:56.204Z,1004.5
2017-10-20T07:39:58.625Z,1004.5
2017-10-20T07:41:01.031Z,1004.5
2017-10-20T07:42:03.783Z,1004.5
2017-10-20T07:43:06.278Z,1004.5
2017-10-20T07:44:08.652Z,1004.5
2017-10-20T07:45:11.415Z,1004.5
2017-10-20T07:46:13.791Z,1004.5
2017-10-20T07:47:16.179Z,1004.5
2017-10-20T07:48:18.625Z,1004.5
2017-10-20T07:49:21.378Z,1004.5
2017-10-20T07:50:23.754Z,1004.5
2017-10-20T07:51:26.135Z,1004.5
2017-10-20T07:52:28.641Z,1004.5
2017-10-20T07:53:31.383Z,1004.6
2017-10-20T07:54:33.772Z,1004.6
2017-10-20T07:55:36.153Z,1004.5
2017-10-20T07:56:38.752Z,1004.6
2017-10-20T07:57:41.484Z,1004.6
2017-10-20T07:58:43.887Z,1004.6
2017-10-20T07:59:46.275Z,1004.6
2017-10-20T08:00:49.201Z,1004.6
2017-10-20T08:01:51.653Z,1004.5
2017-10-20T08:02:54.110Z,1004.5
2017-10-20T08:03:56.511Z,1004.5
2017-10-20T08:04:58.896Z,1004.6
2017-10-20T08:06:01.287Z,1004.5
2017-10-20T08:07:04.045Z,1004.6
2017-10-20T08:08:06.698Z,1004.5
2017-10-20T08:09:09.096Z,1004.5
2017-10-20T08:10:11.468Z,1004.5
2017-10-20T08:11:13.849Z,1004.5
2017-10-20T08:12:16.472Z,1004.4
2017-10-20T08:13:18.856Z,1004.5
2017-10-20T08:14:21.293Z,1004.4
2017-10-20T08:15:23.728Z,1004.5
2017-10-20T08:16:26.353Z,1004.5
2017-10-20T08:17:28.737Z,1004.5
2017-10-20T08:18:31.134Z,1004.5
2017-10-20T08:19:33.826Z,1004.5
2017-10-20T08:20:36.254Z,1004.5
2017-10-20T08:21:38.637Z,1004.5
2017-10-20T08:22:41.016Z,1004.6
2017-10-20T08:23:43.728Z,1004.5
2017-10-20T08:24:46.123Z,1004.6
2017-10-20T08:25:48.561Z,1004.6
2017-10-20T08:26:50.937Z,1004.6
2017-10-20T08:27:53.326Z,1004.7
2017-10-20T08:28:55.707Z,1004.6
2017-10-20T08:29:58.108Z,1004.6
2017-10-20T08:31:00.558Z,1004.6
2017-10-20T08:32:02.929Z,1004.6
2017-10-20T08:33:05.321Z,1004.6
2017-10-20T08:34:07.749Z,1004.6
2017-10-20T08:35:10.107Z,1004.6
2017-10-20T08:36:12.579Z,1004.7
2017-10-20T08:37:15.236Z,1004.6
2017-10-20T08:38:17.744Z,1004.6
2017-10-20T08:39:20.117Z,1004.6
2017-10-20T08:40:22.507Z,1004.7
2017-10-20T08:41:24.895Z,1004.8
2017-10-20T08:42:27.306Z,1004.8
2017-10-20T08:43:29.686Z,1004.7
2017-10-20T08:44:32.070Z,1004.6
2017-10-20T08:45:34.441Z,1004.5
2017-10-20T08:46:36.830Z,1004.5
2017-10-20T08:47:39.252Z,1004.5
2017-10-20T08:48:41.632Z,1004.6
2017-10-20T08:49:44.073Z,1004.6
2017-10-20T08:50:46.489Z,1004.5
2017-10-20T08:51:48.847Z,1004.5
2017-10-20T08:52:51.263Z,1004.5
2017-10-20T08:53:53.651Z,1004.6
2017-10-20T08:54:56.055Z,1004.6
2017-10-20T08:55:58.465Z,1004.6
2017-10-20T08:57:01.214Z,1004.5
2017-10-20T08:58:03.624Z,1004.5
2017-10-20T08:59:06.097Z,1004.6
2017-10-20T09:00:08.871Z,1004.5
2017-10-20T09:01:11.321Z,1004.4
2017-10-20T09:02:13.742Z,1004.4
2017-10-20T09:03:16.129Z,1004.5
2017-10-20T09:04:18.545Z,1004.5
2017-10-20T09:05:20.952Z,1004.5
2017-10-20T09:06:23.392Z,1004.5
2017-10-20T09:07:25.829Z,1004.5
2017-10-20T09:08:28.250Z,1004.5
2017-10-20T09:09:31.048Z,1004.5
2017-10-20T09:10:33.516Z,1004.5
2017-10-20T09:11:35.942Z,1004.5
2017-10-20T09:12:38.386Z,1004.6
2017-10-20T09:13:40.821Z,1004.6
2017-10-20T09:14:43.273Z,1004.6
2017-10-20T09:15:45.723Z,1004.5
2017-10-20T09:16:48.284Z,1004.5
2017-10-20T09:17:50.715Z,1004.6
2017-10-20T09:18:53.154Z,1004.5
2017-10-20T09:19:55.998Z,1004.5
2017-10-20T09:20:58.476Z,1004.5
2017-10-20T09:22:00.913Z,1004.5
2017-10-20T09:23:03.340Z,1004.5
2017-10-20T09:24:05.774Z,1004.5
2017-10-20T09:25:08.271Z,1004.5
2017-10-20T09:26:10.764Z,1004.6
2017-10-20T09:27:13.191Z,1004.7
2017-10-20T09:28:15.695Z,1004.6
2017-10-20T09:29:18.123Z,1004.6
2017-10-20T09:30:20.603Z,1004.6
2017-10-20T09:31:26.068Z,1004.5
2017-10-20T09:32:28.496Z,1004.6
2017-10-20T09:33:30.931Z,1004.5
2017-10-20T09:34:33.391Z,1004.5
2017-10-20T09:35:35.804Z,1004.5
2017-10-20T09:36:38.243Z,1004.5
2017-10-20T09:37:41.033Z,1004.5
2017-10-20T09:38:43.460Z,1004.5
2017-10-20T09:39:45.898Z,1004.5
2017-10-20T09:40:48.325Z,1004.5
2017-10-20T09:41:50.774Z,1004.5
2017-10-20T09:42:53.205Z,1004.5
2017-10-20T09:43:55.645Z,1004.5
2017-10-20T09:44:58.088Z,1004.5
2017-10-20T09:46:00.541Z,1004.6
2017-10-20T09:47:02.976Z,1004.6
2017-10-20T09:48:05.814Z,1004.6
2017-10-20T09:49:08.590Z,1004.5
2017-10-20T09:50:11.020Z,1004.5
2017-10-20T09:51:13.462Z,1004.6
2017-10-20T09:52:15.918Z,1004.6
2017-10-20T09:53:18.352Z,1004.6
2017-10-20T09:54:20.788Z,1004.6
2017-10-20T09:55:23.215Z,1004.6
2017-10-20T09:56:25.650Z,1004.5
2017-10-20T09:57:28.092Z,1004.5
2017-10-20T09:58:30.524Z,1004.5
2017-10-20T09:59:32.968Z,1004.5
2017-10-20T10:00:35.385Z,1004.5
2017-10-20T10:01:38.185Z,1004.5
2017-10-20T10:02:40.616Z,1004.5
2017-10-20T10:03:43.411Z,1004.4
2017-10-20T10:04:46.240Z,1004.5
2017-10-20T10:05:48.675Z,1004.5
2017-10-20T10:06:51.148Z,1004.5
2017-10-20T10:07:53.572Z,1004.5
2017-10-20T10:08:56.012Z,1004.5
2017-10-20T10:09:58.833Z,1004.5
2017-10-20T10:11:01.273Z,1004.6
2017-10-20T10:12:03.700Z,1004.6
2017-10-20T10:13:06.225Z,1004.6
2017-10-20T10:14:08.652Z,1004.6
2017-10-20T10:15:11.254Z,1004.6
2017-10-20T10:16:13.689Z,1004.6
2017-10-20T10:17:16.117Z,1004.6
2017-10-20T10:18:18.553Z,1004.6
2017-10-20T10:19:20.987Z,1004.6
2017-10-20T10:20:23.550Z,1004.6
2017-10-20T10:21:25.988Z,1004.6
2017-10-20T10:22:28.425Z,1004.7
2017-10-20T10:23:30.855Z,1004.6
2017-10-20T10:24:33.667Z,1004.6
2017-10-20T10:25:36.600Z,1004.6
2017-10-20T10:26:39.029Z,1004.6
2017-10-20T10:27:42.093Z,1004.7
2017-10-20T10:28:44.523Z,1004.7
2017-10-20T10:29:47.064Z,1004.7
2017-10-20T10:30:49.497Z,1004.7
2017-10-20T10:31:52.035Z,1004.7
2017-10-20T10:32:54.448Z,1004.7
2017-10-20T10:33:56.902Z,1004.7
2017-10-20T10:34:59.469Z,1004.7
2017-10-20T10:36:01.902Z,1004.7
2017-10-20T10:37:04.340Z,1004.7
2017-10-20T10:38:06.782Z,1004.7
2017-10-20T10:39:09.199Z,1004.7
2017-10-20T10:40:11.844Z,1004.8
2017-10-20T10:41:14.283Z,1004.8
2017-10-20T10:42:16.718Z,1004.8
2017-10-20T10:43:19.149Z,1004.8
2017-10-20T10:44:21.578Z,1004.9
2017-10-20T10:45:24.265Z,1004.9
2017-10-20T10:46:26.683Z,1005
2017-10-20T10:47:29.297Z,1005
2017-10-20T10:48:31.697Z,1005
2017-10-20T10:49:34.223Z,1005
2017-10-20T10:50:36.657Z,1005
2017-10-20T10:51:39.090Z,1004.9
2017-10-20T10:52:41.664Z,1005
2017-10-20T10:53:44.446Z,1004.9
2017-10-20T10:54:46.894Z,1005
2017-10-20T10:55:49.337Z,1004.9
2017-10-20T10:56:52.475Z,1004.9
2017-10-20T10:57:55.303Z,1004.9
2017-10-20T10:58:57.744Z,1004.9
2017-10-20T11:00:00.252Z,1004.9
2017-10-20T11:01:03.055Z,1004.8
2017-10-20T11:02:05.484Z,1004.8
2017-10-20T11:03:08.509Z,1004.8
2017-10-20T11:04:10.941Z,1004.8
2017-10-20T11:05:13.377Z,1004.8
2017-10-20T11:06:15.942Z,1004.7
2017-10-20T11:07:18.734Z,1004.7
2017-10-20T11:08:21.751Z,1004.7
2017-10-20T11:09:24.176Z,1004.7
2017-10-20T11:10:26.609Z,1004.6
2017-10-20T11:11:29.031Z,1004.7
2017-10-20T11:12:31.482Z,1004.7
2017-10-20T11:13:34.142Z,1004.7
2017-10-20T11:14:36.944Z,1004.7
2017-10-20T11:15:39.550Z,1004.7
2017-10-20T11:16:41.984Z,1004.7
2017-10-20T11:17:44.790Z,1004.7
2017-10-20T11:18:47.229Z,1004.8
2017-10-20T11:19:49.654Z,1004.7
2017-10-20T11:20:52.174Z,1004.8
2017-10-20T11:21:54.601Z,1004.8
2017-10-20T11:22:57.044Z,1004.8
2017-10-20T11:23:59.490Z,1004.8
2017-10-20T11:25:01.920Z,1004.8
2017-10-20T11:26:04.461Z,1004.9
2017-10-20T11:27:06.907Z,1004.9
2017-10-20T11:28:09.467Z,1004.9
2017-10-20T11:29:11.901Z,1004.9
2017-10-20T11:30:14.437Z,1005
2017-10-20T11:31:16.853Z,1004.9
2017-10-20T11:32:19.297Z,1005
2017-10-20T11:33:21.865Z,1005
2017-10-20T11:34:24.295Z,1005
2017-10-20T11:35:26.736Z,1005
2017-10-20T11:36:29.166Z,1005
2017-10-20T11:37:31.830Z,1005
2017-10-20T11:38:34.505Z,1005
2017-10-20T11:39:37.437Z,1005
2017-10-20T11:40:39.868Z,1005
2017-10-20T11:41:42.302Z,1005
2017-10-20T11:42:44.732Z,1005
2017-10-20T11:43:47.908Z,1005
2017-10-20T11:44:50.510Z,1005
2017-10-20T11:45:53.389Z,1005
2017-10-20T11:46:55.823Z,1005
2017-10-20T11:47:58.267Z,1005
2017-10-20T11:49:00.699Z,1005
2017-10-20T11:50:03.152Z,1005
2017-10-20T11:51:06.132Z,1005
2017-10-20T11:52:10.091Z,1004.9
2017-10-20T11:53:17.330Z,1004.8
2017-10-20T11:54:27.037Z,1004.9
2017-10-20T11:55:35.814Z,1004.9
2017-10-20T11:56:41.364Z,1004.9
2017-10-20T11:57:48.701Z,1004.9
2017-10-20T11:58:58.708Z,1005
2017-10-20T12:00:03.301Z,1005
2017-10-20T12:01:05.938Z,1005.1
2017-10-20T12:02:08.378Z,1005.1
2017-10-20T12:03:11.195Z,1005
2017-10-20T12:04:13.951Z,1005
2017-10-20T12:05:16.541Z,1005.1
2017-10-20T12:06:19.781Z,1005.1
2017-10-20T12:07:23.632Z,1005.2
2017-10-20T12:08:26.603Z,1005.1
2017-10-20T12:09:31.792Z,1005.1
2017-10-20T12:10:35.802Z,1005.2
2017-10-20T12:11:41.976Z,1005.2
2017-10-20T12:12:45.785Z,1005.2
2017-10-20T12:13:50.513Z,1005.2
2017-10-20T12:14:56.840Z,1005.2
2017-10-20T12:16:02.456Z,1005.2
2017-10-20T12:17:08.312Z,1005.2
2017-10-20T12:18:14.977Z,1005.2
2017-10-20T12:19:21.977Z,1005.2
2017-10-20T12:20:27.693Z,1005.2
2017-10-20T12:21:30.584Z,1005.2
2017-10-20T12:22:34.723Z,1005.2
2017-10-20T12:23:39.426Z,1005.2
2017-10-20T12:24:47.448Z,1005.2
2017-10-20T12:25:53.826Z,1005.2
2017-10-20T12:26:59.032Z,1005.2
2017-10-20T12:28:01.416Z,1005.2
2017-10-20T12:29:03.862Z,1005.2
2017-10-20T12:30:06.230Z,1005.2
2017-10-20T12:31:21.861Z,1005.1
2017-10-20T12:32:24.312Z,1005.2
2017-10-20T12:33:26.751Z,1005.2
2017-10-20T12:34:29.207Z,1005.2
2017-10-20T12:35:31.631Z,1005.2
2017-10-20T12:36:34.076Z,1005.1
2017-10-20T12:37:36.512Z,1005.1
2017-10-20T12:38:38.985Z,1005.1
2017-10-20T12:39:41.410Z,1005.1
2017-10-20T12:40:43.849Z,1005.1
2017-10-20T12:41:46.656Z,1005.1
2017-10-20T12:42:49.099Z,1005.1
2017-10-20T12:43:51.535Z,1005
2017-10-20T12:44:53.988Z,1005
2017-10-20T12:45:56.430Z,1005
2017-10-20T12:46:58.925Z,1005
2017-10-20T12:48:01.360Z,1005
2017-10-20T12:49:04.162Z,1005
2017-10-20T12:50:06.614Z,1005
2017-10-20T12:51:09.417Z,1004.9
2017-10-20T12:52:11.856Z,1004.9
2017-10-20T12:53:14.317Z,1004.8
2017-10-20T12:54:17.126Z,1004.8
2017-10-20T12:55:19.558Z,1004.8
2017-10-20T12:56:22.020Z,1004.8
2017-10-20T12:57:24.462Z,1004.7
2017-10-20T12:58:26.891Z,1004.7
2017-10-20T12:59:29.349Z,1004.7
2017-10-20T13:00:32.165Z,1004.7
2017-10-20T13:01:34.629Z,1004.7
2017-10-20T13:02:37.076Z,1004.7
2017-10-20T13:03:39.509Z,1004.7
2017-10-20T13:04:41.951Z,1004.7
2017-10-20T13:05:44.769Z,1004.6
2017-10-20T13:06:47.204Z,1004.6
2017-10-20T13:07:50.171Z,1004.6
2017-10-20T13:08:52.625Z,1004.6